Time;durP1;ratioP1;P1;durP2;ratioP2;P2;SDS_P1;SDS_P2;PMS_P1;PMS_P2;Temp;Humidity;BMP_temperature;BMP_pressure;BME280_temperature;BME280_humidity;BME280_pressure;Samples;Min_cycle;Max_cycle;Signal;HPM_P1;HPM_P2
2021/01/28 00:02:18;;;;;;;23.45;11.60;;;51.90;1868.80;;;;;;5036023;28;20056;-68
2021/01/28 00:04:43;;;;;;;25.85;11.98;;;51.80;1868.80;;;;;;5035835;28;20033;-65
2021/01/28 00:07:09;;;;;;;24.45;12.15;;;51.90;1868.80;;;;;;5036095;28;20036;-68
2021/01/28 00:09:35;;;;;;;23.60;11.13;;;51.90;1843.20;;;;;;5035637;28;20348;-65
2021/01/28 00:12:00;;;;;;;21.88;10.82;;;51.80;1843.20;;;;;;5035936;28;20124;-69
2021/01/28 00:14:26;;;;;;;22.42;10.80;;;51.80;1843.20;;;;;;5036405;28;20044;-69
2021/01/28 00:16:52;;;;;;;25.88;11.80;;;51.80;1843.20;;;;;;5035861;28;20103;-68
2021/01/28 00:19:18;;;;;;;28.08;11.40;;;51.80;1843.20;;;;;;5035658;28;20356;-69
2021/01/28 00:21:44;;;;;;;23.60;11.20;;;51.70;1843.20;;;;;;5035694;28;20072;-65
2021/01/28 00:24:10;;;;;;;27.80;11.43;;;51.70;1868.80;;;;;;5035629;28;20556;-69
2021/01/28 00:26:36;;;;;;;26.38;11.43;;;51.70;1868.80;;;;;;5035600;28;20030;-69
2021/01/28 00:29:02;;;;;;;26.08;12.60;;;51.70;1868.80;;;;;;5035729;28;20056;-64
2021/01/28 00:31:28;;;;;;;25.67;12.43;;;51.70;1868.80;;;;;;5035487;28;20025;-65
2021/01/28 00:33:54;;;;;;;27.95;12.10;;;51.70;1868.80;;;;;;5035278;28;20037;-69
2021/01/28 00:36:19;;;;;;;31.73;14.05;;;51.70;1843.20;;;;;;5035439;28;20022;-69
2021/01/28 00:38:45;;;;;;;24.40;11.93;;;51.70;1843.20;;;;;;5035292;28;20049;-65
2021/01/28 00:41:11;;;;;;;24.88;12.20;;;51.60;1868.80;;;;;;5035414;28;20026;-64
2021/01/28 00:43:37;;;;;;;24.05;12.77;;;51.60;1843.20;;;;;;5035267;28;20045;-69
2021/01/28 00:46:05;;;;;;;32.03;14.32;;;51.60;1843.20;;;;;;5035280;28;20060;-65
2021/01/28 00:48:31;;;;;;;33.65;15.25;;;51.60;1868.80;;;;;;5035242;28;20033;-69
2021/01/28 00:50:59;;;;;;;39.13;16.90;;;51.60;1868.80;;;;;;5034649;28;20048;-69
2021/01/28 00:53:25;;;;;;;35.08;16.52;;;51.60;1843.20;;;;;;5035204;28;20034;-64
2021/01/28 00:55:51;;;;;;;36.60;17.33;;;51.50;1868.80;;;;;;5034927;28;20060;-65
2021/01/28 00:58:19;;;;;;;37.35;16.77;;;51.60;1843.20;;;;;;5034744;28;20054;-64
2021/01/28 01:00:46;;;;;;;29.60;14.98;;;51.50;1843.20;;;;;;5034984;28;20382;-69
2021/01/28 01:03:31;;;;;;;;;;;;;;;;;;;;;
2021/01/28 01:05:57;;;;;;;30.00;14.90;;;51.50;1868.80;;;;;;5030714;28;20035;-65
2021/01/28 01:08:35;;;;;;;31.92;14.82;;;51.40;1843.20;;;;;;5034068;28;20128;-69
2021/01/28 01:11:08;;;;;;;23.17;12.48;;;51.40;1843.20;;;;;;5017027;28;20017;-69
2021/01/28 01:13:35;;;;;;;26.45;13.18;;;51.40;1843.20;;;;;;5034818;28;20372;-67
2021/01/28 01:16:03;;;;;;;22.98;11.90;;;51.40;1868.80;;;;;;5034681;28;20079;-69
2021/01/28 01:18:31;;;;;;;25.85;12.63;;;51.40;1868.80;;;;;;5034549;28;20028;-69
2021/01/28 01:20:59;;;;;;;24.52;12.05;;;51.30;1868.80;;;;;;5033942;28;20056;-64
2021/01/28 01:23:25;;;;;;;32.63;13.40;;;51.40;1868.80;;;;;;5034671;28;20064;-69
2021/01/28 01:25:51;;;;;;;26.02;12.88;;;51.30;1868.80;;;;;;5034293;28;20018;-65
2021/01/28 01:28:17;;;;;;;28.60;12.52;;;51.30;1868.80;;;;;;5034413;28;20057;-68
2021/01/28 01:30:43;;;;;;;23.63;12.05;;;51.30;1868.80;;;;;;5034367;28;20045;-65
2021/01/28 01:33:09;;;;;;;23.65;12.40;;;51.30;1868.80;;;;;;5034280;28;20435;-69
2021/01/28 01:35:36;;;;;;;24.05;11.95;;;51.30;1868.80;;;;;;5034908;28;20100;-64
2021/01/28 01:38:03;;;;;;;22.85;12.07;;;51.20;1868.80;;;;;;5034414;28;20029;-64
2021/01/28 01:40:36;;;;;;;25.83;11.50;;;51.20;1868.80;;;;;;5034333;28;20021;-69
2021/01/28 01:43:05;;;;;;;20.10;10.52;;;51.20;1868.80;;;;;;5034154;28;20375;-69
2021/01/28 01:45:35;;;;;;;16.65;9.68;;;51.30;1843.20;;;;;;5034436;28;20021;-64
2021/01/28 01:48:18;;;;;;;19.80;10.48;;;51.20;1868.80;;;;;;5034207;28;20029;-66
2021/01/28 01:50:44;;;;;;;16.98;9.07;;;51.20;1868.80;;;;;;5034228;28;20041;-64
2021/01/28 01:53:16;;;;;;;20.42;10.00;;;51.20;1868.80;;;;;;5034028;28;20082;-69
2021/01/28 01:55:49;;;;;;;21.52;10.38;;;51.20;1868.80;;;;;;5034192;28;20029;-64
2021/01/28 01:59:00;;;;;;;23.48;11.05;;;51.20;1868.80;;;;;;5033740;28;20049;-64
2021/01/28 02:01:27;;;;;;;19.98;11.10;;;26.50;1843.20;;;;;;4973062;28;20040;-68
2021/01/28 02:03:55;;;;;;;24.50;10.52;;;26.50;1843.20;;;;;;4973185;28;20035;-69
2021/01/28 02:06:30;;;;;;;19.27;10.10;;;26.50;1843.20;;;;;;4973049;28;20568;-69
2021/01/28 02:08:57;;;;;;;20.02;10.38;;;26.50;1843.20;;;;;;4973121;28;20042;-65
2021/01/28 02:11:24;;;;;;;15.93;9.75;;;26.50;1843.20;;;;;;4973009;28;20027;-64
2021/01/28 02:13:53;;;;;;;20.75;11.07;;;26.40;1843.20;;;;;;4973104;28;20053;-69
2021/01/28 02:16:22;;;;;;;18.40;10.15;;;26.50;1843.20;;;;;;4973014;28;20158;-65
2021/01/28 02:18:49;;;;;;;16.92;9.13;;;26.40;1843.20;;;;;;4973008;28;20039;-65
2021/01/28 02:21:33;;;;;;;19.30;8.93;;;26.40;1843.20;;;;;;4972827;28;20042;-69
2021/01/28 02:24:22;;;;;;;17.63;8.75;;;26.40;1843.20;;;;;;4972784;28;20035;-64
2021/01/28 02:26:49;;;;;;;17.08;9.10;;;26.40;1843.20;;;;;;4972753;28;20035;-69
2021/01/28 02:29:16;;;;;;;14.60;8.38;;;26.40;1843.20;;;;;;4973048;28;20493;-69
2021/01/28 02:31:46;;;;;;;15.18;8.93;;;26.30;1843.20;;;;;;4991270;28;20068;-68
2021/01/28 02:34:12;;;;;;;13.15;8.00;;;26.30;1843.20;;;;;;5018910;28;20030;-69
2021/01/28 02:36:44;;;;;;;15.93;8.57;;;26.30;1868.80;;;;;;5037790;28;20029;-69
2021/01/28 02:39:14;;;;;;;13.93;8.73;;;26.30;1868.80;;;;;;5037644;28;20097;-65
2021/01/28 02:41:41;;;;;;;13.88;7.93;;;26.30;1843.20;;;;;;5037297;28;20425;-65
2021/01/28 02:44:08;;;;;;;15.77;8.15;;;26.30;1843.20;;;;;;5037745;28;20032;-65
2021/01/28 02:46:34;;;;;;;15.75;8.75;;;26.30;1868.80;;;;;;5037513;28;20029;-65
2021/01/28 02:48:59;;;;;;;14.27;8.63;;;26.30;1868.80;;;;;;5037338;28;20533;-66
2021/01/28 02:51:25;;;;;;;13.52;8.20;;;26.30;1868.80;;;;;;5037361;28;20108;-65
2021/01/28 02:53:53;;;;;;;13.65;7.85;;;26.30;1868.80;;;;;;5037409;28;20018;-69
2021/01/28 02:56:21;;;;;;;18.92;8.98;;;26.30;1868.80;;;;;;5037052;28;20108;-68
2021/01/28 02:58:49;;;;;;;15.93;8.30;;;26.30;1868.80;;;;;;5037360;28;20041;-65
2021/01/28 03:01:16;;;;;;;17.10;9.25;;;26.40;1894.40;;;;;;5037201;28;20033;-64
2021/01/28 03:03:42;;;;;;;18.00;9.82;;;26.50;1894.40;;;;;;5037138;28;20037;-69
2021/01/28 03:06:09;;;;;;;19.95;9.40;;;26.50;1894.40;;;;;;5037219;28;20112;-65
2021/01/28 03:08:35;;;;;;;14.95;8.73;;;26.50;1894.40;;;;;;5037218;28;20036;-69
2021/01/28 03:11:01;;;;;;;16.58;9.98;;;26.50;1894.40;;;;;;5036784;28;20029;-68
2021/01/28 03:13:28;;;;;;;20.13;10.02;;;51.20;1920.00;;;;;;5037021;28;20112;-65
2021/01/28 03:15:54;;;;;;;20.75;10.00;;;51.20;1920.00;;;;;;5037044;28;20033;-65
2021/01/28 03:18:21;;;;;;;20.45;11.07;;;51.20;1920.00;;;;;;5036833;28;20026;-69
2021/01/28 03:20:46;;;;;;;17.00;9.88;;;51.20;1920.00;;;;;;5036801;28;20029;-65
2021/01/28 03:23:13;;;;;;;17.55;9.13;;;51.20;1920.00;;;;;;5036829;28;20037;-69
2021/01/28 03:25:39;;;;;;;15.73;8.60;;;51.20;1920.00;;;;;;5036771;28;20032;-65
2021/01/28 03:28:05;;;;;;;19.63;9.75;;;51.20;1894.40;;;;;;5037113;28;20033;-68
2021/01/28 03:30:43;;;;;;;17.27;10.43;;;51.20;1894.40;;;;;;5036829;28;20024;-68
2021/01/28 03:33:11;;;;;;;20.08;10.60;;;51.20;1894.40;;;;;;5036722;28;20022;-69
2021/01/28 03:35:37;;;;;;;23.55;11.65;;;51.20;1894.40;;;;;;5036643;28;20112;-65
2021/01/28 03:38:04;;;;;;;22.92;11.77;;;51.20;1894.40;;;;;;5036583;28;20523;-64
2021/01/28 03:40:31;;;;;;;22.23;11.90;;;51.20;1894.40;;;;;;5036393;28;20482;-65
2021/01/28 03:42:57;;;;;;;23.75;11.27;;;26.50;1868.80;;;;;;5036130;28;20385;-69
2021/01/28 03:45:23;;;;;;;18.17;10.55;;;26.50;1894.40;;;;;;5035583;28;20096;-64
2021/01/28 03:47:50;;;;;;;19.77;11.10;;;26.40;1868.80;;;;;;5036487;28;20389;-69
2021/01/28 03:50:19;;;;;;;20.00;10.85;;;26.40;1894.40;;;;;;5036161;28;20076;-64
2021/01/28 03:52:44;;;;;;;39.45;16.52;;;26.40;1868.80;;;;;;5036218;28;20030;-69
2021/01/28 03:55:10;;;;;;;50.97;19.20;;;26.40;1868.80;;;;;;5036155;28;20040;-65
2021/01/28 03:57:36;;;;;;;57.55;20.95;;;26.40;1868.80;;;;;;5035524;28;20136;-68
2021/01/28 04:00:09;;;;;;;55.08;23.20;;;26.40;1868.80;;;;;;5036323;28;20045;-65
2021/01/28 04:02:35;;;;;;;45.85;20.27;;;26.40;1894.40;;;;;;5035852;28;20386;-65
2021/01/28 04:05:01;;;;;;;50.22;20.50;;;26.30;1868.80;;;;;;5036006;28;20029;-65
2021/01/28 04:07:27;;;;;;;39.13;18.27;;;26.40;1868.80;;;;;;5036356;28;20055;-65
2021/01/28 04:09:53;;;;;;;37.08;16.33;;;26.40;1868.80;;;;;;5035948;28;20025;-65
2021/01/28 04:12:19;;;;;;;27.70;13.75;;;26.30;1868.80;;;;;;5035838;28;20360;-65
2021/01/28 04:14:44;;;;;;;27.85;13.48;;;26.30;1868.80;;;;;;5036059;28;20029;-65
2021/01/28 04:17:11;;;;;;;28.95;12.95;;;26.30;1868.80;;;;;;5035802;28;20024;-65
2021/01/28 04:19:36;;;;;;;21.85;10.68;;;26.30;1868.80;;;;;;5035761;28;20101;-65
2021/01/28 04:22:02;;;;;;;19.08;10.32;;;26.30;1868.80;;;;;;5035761;28;20112;-69
2021/01/28 04:24:28;;;;;;;20.60;11.48;;;26.30;1868.80;;;;;;5035781;28;20053;-69
2021/01/28 04:26:53;;;;;;;21.88;13.13;;;26.30;1868.80;;;;;;5035485;28;20425;-65
2021/01/28 04:29:20;;;;;;;25.85;13.80;;;26.30;1868.80;;;;;;5035936;28;20025;-65
2021/01/28 04:31:46;;;;;;;22.33;13.35;;;26.30;1843.20;;;;;;5035470;28;20017;-65
2021/01/28 04:34:12;;;;;;;19.75;12.65;;;26.30;1843.20;;;;;;5035475;28;20543;-65
2021/01/28 04:36:38;;;;;;;23.20;11.88;;;26.30;1843.20;;;;;;5035428;28;20021;-68
2021/01/28 04:39:05;;;;;;;22.98;11.52;;;26.20;1843.20;;;;;;5035154;28;20041;-65
2021/01/28 04:41:31;;;;;;;17.23;10.98;;;26.30;1843.20;;;;;;5035044;28;20428;-65
2021/01/28 04:44:00;;;;;;;18.00;10.32;;;26.30;1843.20;;;;;;5035343;28;20034;-66
2021/01/28 04:46:37;;;;;;;16.85;9.82;;;26.30;1843.20;;;;;;5035422;28;20025;-68
2021/01/28 04:49:05;;;;;;;17.15;10.73;;;26.30;1843.20;;;;;;5035462;28;20049;-68
2021/01/28 04:51:32;;;;;;;17.35;10.20;;;26.20;1843.20;;;;;;5035338;28;20028;-65
2021/01/28 04:54:03;;;;;;;16.38;10.15;;;26.20;1843.20;;;;;;5035051;28;20029;-65
2021/01/28 04:56:31;;;;;;;16.38;9.93;;;26.20;1868.80;;;;;;5034964;28;20402;-65
2021/01/28 04:59:24;;;;;;;15.88;9.95;;;26.20;1843.20;;;;;;5035024;28;20060;-65
2021/01/28 05:01:50;;;;;;;17.85;9.52;;;26.20;1843.20;;;;;;5035311;28;20386;-66
2021/01/28 05:04:18;;;;;;;20.50;9.85;;;26.20;1843.20;;;;;;5035026;28;20021;-65
2021/01/28 05:06:44;;;;;;;16.45;10.20;;;26.20;1843.20;;;;;;5034735;28;20022;-68
2021/01/28 05:09:11;;;;;;;22.35;12.35;;;26.20;1843.20;;;;;;5034793;28;20052;-65
2021/01/28 05:11:37;;;;;;;24.95;12.80;;;26.20;1843.20;;;;;;5034696;28;20470;-65
2021/01/28 05:14:17;;;;;;;25.85;13.02;;;26.10;1843.20;;;;;;5034868;28;20491;-65
2021/01/28 05:16:44;;;;;;;31.30;14.43;;;26.20;1843.20;;;;;;5034656;28;20021;-64
2021/01/28 05:19:24;;;;;;;36.92;16.42;;;26.20;1843.20;;;;;;5034461;28;20030;-65
2021/01/28 05:22:04;;;;;;;42.97;17.85;;;26.10;1843.20;;;;;;5034694;28;20042;-68
2021/01/28 05:24:41;;;;;;;39.13;17.92;;;26.20;1843.20;;;;;;5034203;28;20108;-66
2021/01/28 05:27:25;;;;;;;44.25;18.70;;;26.10;1843.20;;;;;;5034634;28;20079;-64
2021/01/28 05:29:54;;;;;;;40.92;17.95;;;26.20;1868.80;;;;;;5034363;28;20021;-65
2021/01/28 05:32:44;;;;;;;35.95;17.45;;;26.20;1868.80;;;;;;5034226;28;20025;-64
2021/01/28 05:35:16;;;;;;;53.95;23.80;;;26.30;1868.80;;;;;;5034311;28;20513;-69
2021/01/28 05:37:43;;;;;;;56.58;23.85;;;26.30;1868.80;;;;;;5034416;28;20029;-69
2021/01/28 05:40:21;;;;;;;41.55;20.50;;;26.40;1894.40;;;;;;5034229;28;20025;-65
2021/01/28 05:42:47;;;;;;;41.33;21.02;;;26.30;1868.80;;;;;;5033992;28;20029;-66
2021/01/28 05:45:22;;;;;;;96.25;54.42;;;26.40;1868.80;;;;;;5034283;28;20021;-65
2021/01/28 05:47:48;;;;;;;158.52;82.65;;;26.40;1868.80;;;;;;5034380;28;20487;-67
2021/01/28 05:50:26;;;;;;;136.77;77.15;;;26.40;1868.80;;;;;;5033999;28;20057;-65
2021/01/28 05:53:16;;;;;;;96.30;55.65;;;26.40;1894.40;;;;;;5034066;28;20090;-66
2021/01/28 05:55:44;;;;;;;74.28;44.35;;;26.40;1894.40;;;;;;5034149;28;20026;-69
2021/01/28 05:58:39;;;;;;;71.05;39.88;;;26.40;1894.40;;;;;;5033799;28;20060;-67
2021/01/28 06:01:10;;;;;;;62.42;36.30;;;26.50;1894.40;;;;;;5033988;28;20083;-66
2021/01/28 06:04:07;;;;;;;57.67;31.08;;;26.50;1894.40;;;;;;5033718;28;20047;-65
2021/01/28 06:06:51;;;;;;;50.47;29.15;;;26.50;1894.40;;;;;;5034022;28;20021;-65
2021/01/28 06:09:36;;;;;;;53.95;28.88;;;26.50;1894.40;;;;;;5033551;28;20029;-64
2021/01/28 06:12:12;;;;;;;75.45;44.15;;;26.50;1868.80;;;;;;5033949;28;20025;-68
2021/01/28 06:14:46;;;;;;;149.77;82.25;;;26.50;1868.80;;;;;;5033767;28;20021;-65
2021/01/28 06:17:32;;;;;;;146.27;81.10;;;26.50;1894.40;;;;;;5033702;28;20455;-64
2021/01/28 06:20:01;;;;;;;152.88;88.22;;;26.50;1868.80;;;;;;5033645;28;20025;-67
2021/01/28 06:22:38;;;;;;;151.48;85.53;;;26.40;1868.80;;;;;;5033656;28;20399;-64
2021/01/28 06:25:28;;;;;;;136.68;72.03;;;26.40;1894.40;;;;;;5033490;28;20479;-68
2021/01/28 06:29:01;;;;;;;120.45;61.25;;;26.40;1894.40;;;;;;5033995;28;20029;-64
2021/01/28 06:32:03;;;;;;;102.28;50.90;;;26.40;1868.80;;;;;;4934259;28;20044;-65
2021/01/28 06:34:47;;;;;;;87.15;43.70;;;26.40;1894.40;;;;;;4918569;29;20063;-64
2021/01/28 06:37:15;;;;;;;85.90;45.20;;;26.40;1868.80;;;;;;4918398;29;20039;-68
2021/01/28 06:39:50;;;;;;;75.63;40.28;;;26.40;1894.40;;;;;;4934290;29;20449;-64
2021/01/28 06:42:28;;;;;;;257.80;113.35;;;26.40;1894.40;;;;;;4934501;29;20496;-65
2021/01/28 06:44:57;;;;;;;145.73;69.38;;;26.50;1894.40;;;;;;4934283;29;20027;-65
2021/01/28 06:47:45;;;;;;;101.50;46.28;;;51.20;1920.00;;;;;;4933784;29;20624;-65
2021/01/28 06:50:24;;;;;;;84.15;40.83;;;51.20;1894.40;;;;;;4934175;29;20039;-66
2021/01/28 06:53:07;;;;;;;90.40;40.67;;;51.20;1894.40;;;;;;4934084;29;20036;-66
2021/01/28 06:55:57;;;;;;;146.90;67.88;;;51.20;1920.00;;;;;;4934215;29;20619;-65
2021/01/28 06:58:46;;;;;;;232.80;105.72;;;51.20;1920.00;;;;;;4934128;29;20082;-68
2021/01/28 07:01:26;;;;;;;210.38;97.60;;;51.20;1920.00;;;;;;4937178;28;20060;-64
2021/01/28 07:04:16;;;;;;;163.45;85.50;;;51.20;1920.00;;;;;;4972534;28;20369;-64
2021/01/28 07:07:08;;;;;;;162.00;83.40;;;51.20;1920.00;;;;;;4990242;28;20383;-64
2021/01/28 07:10:08;;;;;;;336.88;146.75;;;51.20;1920.00;;;;;;4972273;28;20053;-67
2021/01/28 07:12:41;;;;;;;399.83;183.07;;;51.30;1920.00;;;;;;4934027;29;20040;-64
2021/01/28 07:15:09;;;;;;;368.23;172.65;;;51.30;1920.00;;;;;;4934052;29;20035;-65
2021/01/28 07:18:03;;;;;;;313.58;148.75;;;51.30;1920.00;;;;;;4933846;29;20031;-65
2021/01/28 07:20:34;;;;;;;396.58;194.27;;;51.30;1920.00;;;;;;4931953;29;20382;-65
2021/01/28 07:23:25;;;;;;;394.92;186.63;;;51.30;1945.60;;;;;;4937488;29;20126;-64
2021/01/28 07:26:04;;;;;;;403.30;182.73;;;51.40;1945.60;;;;;;4937237;29;20382;-64
2021/01/28 07:28:30;;;;;;;363.75;164.68;;;51.40;1945.60;;;;;;4937411;29;20043;-65
2021/01/28 07:31:08;;;;;;;309.75;144.52;;;51.50;1945.60;;;;;;4937325;29;20020;-68
2021/01/28 07:33:56;;;;;;;253.93;120.68;;;51.50;1945.60;;;;;;4937265;29;20042;-65
2021/01/28 07:36:22;;;;;;;227.15;110.10;;;51.60;1945.60;;;;;;4899368;29;20435;-68
2021/01/28 07:38:56;;;;;;;191.15;94.72;;;51.60;1945.60;;;;;;4899212;29;20041;-65
2021/01/28 07:41:27;;;;;;;139.68;70.93;;;51.70;1945.60;;;;;;4899193;29;20083;-64
2021/01/28 07:44:24;;;;;;;124.75;62.60;;;51.70;1945.60;;;;;;4899161;29;20458;-69
2021/01/28 07:46:52;;;;;;;105.50;50.42;;;51.70;1945.60;;;;;;4912342;29;20510;-65
2021/01/28 07:49:23;;;;;;;113.75;57.78;;;51.70;1945.60;;;;;;4937284;29;20043;-65
2021/01/28 07:51:50;;;;;;;88.65;49.55;;;51.80;1971.20;;;;;;4937030;29;20035;-65
2021/01/28 07:54:24;;;;;;;78.50;44.08;;;51.80;1971.20;;;;;;4936874;29;20072;-65
2021/01/28 07:56:59;;;;;;;73.80;41.40;;;51.90;1996.80;;;;;;4936715;29;20474;-64
2021/01/28 07:59:39;;;;;;;71.28;40.50;;;52.10;1996.80;;;;;;4936454;29;20521;-65
2021/01/28 08:02:38;;;;;;;70.18;38.80;;;76.80;1996.80;;;;;;4936808;29;20034;-64
2021/01/28 08:05:03;;;;;;;129.35;65.93;;;76.80;2022.40;;;;;;4898875;29;20066;-65
2021/01/28 08:07:44;;;;;;;278.85;126.00;;;76.90;2022.40;;;;;;4898577;29;20542;-65
2021/01/28 08:10:19;;;;;;;261.10;119.22;;;77.00;1996.80;;;;;;4898698;29;20104;-65
2021/01/28 08:12:57;;;;;;;;;;;77.00;2022.40;;;;;;4917658;28;20085;-64
2021/01/28 08:15:44;;;;;;;295.15;133.65;;;77.10;1996.80;;;;;;4974916;28;19906;-65
2021/01/28 08:18:21;;;;;;;254.57;130.70;;;77.20;1996.80;;;;;;4974571;28;20078;-65
2021/01/28 08:20:47;;;;;;;163.98;88.95;;;77.30;1996.80;;;;;;4974740;28;20528;-65
2021/01/28 08:23:18;;;;;;;143.30;75.00;;;77.40;1996.80;;;;;;4974613;28;20039;-65
2021/01/28 08:25:59;;;;;;;125.57;65.75;;;77.50;2022.40;;;;;;4974778;28;20146;-65
2021/01/28 08:28:28;;;;;;;95.65;56.17;;;77.60;1996.80;;;;;;4974860;28;20042;-65
2021/01/28 08:31:25;;;;;;;90.72;54.42;;;77.70;1996.80;;;;;;4974231;28;20042;-65
2021/01/28 08:34:03;;;;;;;76.80;42.28;;;102.40;1971.20;;;;;;4974640;28;20038;-65
2021/01/28 08:36:45;;;;;;;177.55;85.47;;;102.40;1996.80;;;;;;4975085;28;20043;-64
2021/01/28 08:39:13;;;;;;;159.63;79.20;;;102.50;1996.80;;;;;;4974531;28;20073;-65
2021/01/28 08:41:41;;;;;;;152.48;75.93;;;102.60;1971.20;;;;;;5030722;28;20175;-65
2021/01/28 08:44:11;;;;;;;144.20;72.38;;;102.60;1971.20;;;;;;5035258;28;20091;-64
2021/01/28 08:46:40;;;;;;;118.97;63.35;;;102.70;1945.60;;;;;;5035174;28;20022;-64
2021/01/28 08:49:18;;;;;;;105.72;58.53;;;102.70;1920.00;;;;;;5035263;28;20025;-64
2021/01/28 08:51:51;;;;;;;87.78;49.47;;;102.80;1945.60;;;;;;5035343;28;20029;-64
2021/01/28 08:54:42;;;;;;;86.18;50.05;;;102.90;1920.00;;;;;;5034638;28;20116;-64
2021/01/28 08:57:12;;;;;;;108.95;63.60;;;102.90;1971.20;;;;;;5034709;28;20073;-65
2021/01/28 08:59:52;;;;;;;99.07;59.60;;;102.90;1945.60;;;;;;5034914;28;20029;-64
2021/01/28 09:02:25;;;;;;;78.63;47.03;;;103.00;1920.00;;;;;;5035049;28;20095;-64
2021/01/28 09:05:00;;;;;;;72.60;45.40;;;103.10;1894.40;;;;;;5034819;28;20032;-64
2021/01/28 09:07:49;;;;;;;73.45;44.17;;;103.10;1920.00;;;;;;5034922;28;20022;-64
2021/01/28 09:10:37;;;;;;;62.58;36.42;;;103.10;1868.80;;;;;;5034871;28;20029;-64
2021/01/28 09:13:30;;;;;;;63.20;37.55;;;103.10;1868.80;;;;;;5034628;28;20017;-64
2021/01/28 09:16:07;;;;;;;66.05;36.35;;;103.20;1868.80;;;;;;5034898;28;20029;-65
2021/01/28 09:18:37;;;;;;;70.05;39.92;;;103.20;1868.80;;;;;;5034566;28;20097;-64
2021/01/28 09:21:06;;;;;;;126.43;63.25;;;103.30;1868.80;;;;;;5034768;28;20418;-64
2021/01/28 09:23:32;;;;;;;160.13;81.78;;;103.30;1843.20;;;;;;5034584;28;20040;-64
2021/01/28 09:26:24;;;;;;;177.15;83.30;;;128.00;1868.80;;;;;;5034566;28;20053;-65
2021/01/28 09:28:49;;;;;;;126.32;70.20;;;128.00;1843.20;;;;;;5034640;28;20025;-64
2021/01/28 09:31:33;;;;;;;125.80;70.07;;;128.00;1868.80;;;;;;5034499;28;20030;-65
2021/01/28 09:34:15;;;;;;;116.30;65.57;;;128.00;1843.20;;;;;;5033695;28;20029;-64
2021/01/28 09:36:42;;;;;;;129.80;74.40;;;128.10;1843.20;;;;;;5034549;28;20036;-64
2021/01/28 09:39:52;;;;;;;176.50;95.90;;;128.20;1843.20;;;;;;5034419;28;20129;-65
2021/01/28 09:42:31;;;;;;;196.35;108.35;;;128.20;1843.20;;;;;;4972433;28;20057;-65
2021/01/28 09:45:05;;;;;;;199.15;116.47;;;128.30;1843.20;;;;;;4973104;28;20031;-65
2021/01/28 09:47:31;;;;;;;166.30;101.30;;;128.40;1843.20;;;;;;4973438;28;20033;-65
2021/01/28 09:50:09;;;;;;;119.18;67.85;;;128.40;1817.60;;;;;;4956912;28;20105;-65
2021/01/28 09:52:38;;;;;;;106.30;55.17;;;128.40;1843.20;;;;;;4973193;28;20045;-64
2021/01/28 09:55:07;;;;;;;111.10;53.58;;;128.40;1817.60;;;;;;4973698;28;20026;-65
2021/01/28 09:57:33;;;;;;;112.63;52.40;;;128.40;1817.60;;;;;;4962124;28;20445;-65
2021/01/28 09:59:59;;;;;;;112.13;50.25;;;128.50;1817.60;;;;;;4954024;29;20029;-65
2021/01/28 10:02:37;;;;;;;113.53;52.88;;;128.50;1817.60;;;;;;4953813;29;20473;-65
2021/01/28 10:05:05;;;;;;;95.68;48.47;;;128.60;1792.00;;;;;;4953844;29;20043;-65
2021/01/28 10:07:31;;;;;;;105.97;51.38;;;128.60;1817.60;;;;;;4954132;29;20058;-65
2021/01/28 10:09:57;;;;;;;107.78;56.90;;;128.60;1817.60;;;;;;4953680;29;20528;-64
2021/01/28 10:12:25;;;;;;;89.97;49.15;;;128.60;1792.00;;;;;;4954066;29;20039;-64
2021/01/28 10:14:52;;;;;;;86.75;45.65;;;128.70;1792.00;;;;;;4953811;29;20027;-65
2021/01/28 10:17:18;;;;;;;70.95;44.35;;;128.70;1792.00;;;;;;4969579;28;20045;-64
2021/01/28 10:19:44;;;;;;;88.85;51.70;;;128.80;1792.00;;;;;;5013896;28;20462;-64
2021/01/28 10:22:16;;;;;;;102.97;57.40;;;128.80;1766.40;;;;;;5013795;28;20030;-65
2021/01/28 10:24:42;;;;;;;104.90;57.25;;;128.80;1792.00;;;;;;5013895;28;20026;-65
2021/01/28 10:27:09;;;;;;;112.07;57.10;;;128.80;1792.00;;;;;;5013999;28;20072;-65
2021/01/28 10:29:40;;;;;;;99.53;53.22;;;128.90;1792.00;;;;;;5014220;28;20030;-64
2021/01/28 10:32:07;;;;;;;89.65;49.30;;;128.90;1792.00;;;;;;5013898;28;20026;-65
2021/01/28 10:34:34;;;;;;;76.88;45.40;;;128.90;1766.40;;;;;;5013949;28;20022;-65
2021/01/28 10:37:00;;;;;;;80.45;47.08;;;153.60;1766.40;;;;;;5013874;28;20022;-65
2021/01/28 10:39:25;;;;;;;77.97;44.60;;;128.90;1766.40;;;;;;5013734;28;20033;-64
2021/01/28 10:41:51;;;;;;;83.25;44.35;;;153.60;1766.40;;;;;;4995846;28;20034;-64
2021/01/28 10:44:17;;;;;;;71.32;39.33;;;128.90;1766.40;;;;;;5013941;28;20033;-65
2021/01/28 10:46:43;;;;;;;70.78;38.90;;;128.90;1766.40;;;;;;5013828;28;20416;-64
2021/01/28 10:49:10;;;;;;;77.53;41.72;;;153.60;1766.40;;;;;;5013903;28;20092;-65
2021/01/28 10:51:37;;;;;;;65.63;35.97;;;153.60;1766.40;;;;;;5013656;28;20022;-65
2021/01/28 10:54:03;;;;;;;63.15;35.20;;;153.60;1766.40;;;;;;5015018;28;20482;-64
2021/01/28 10:56:29;;;;;;;58.65;33.67;;;153.60;1740.80;;;;;;5019737;28;20383;-65
2021/01/28 10:58:55;;;;;;;58.33;34.38;;;153.60;1766.40;;;;;;5037354;28;20030;-64
2021/01/28 11:01:21;;;;;;;62.85;34.63;;;153.60;1740.80;;;;;;5037312;28;20033;-64
2021/01/28 11:03:47;;;;;;;65.65;35.55;;;153.70;1740.80;;;;;;5037209;28;20430;-64
2021/01/28 11:06:13;;;;;;;72.28;38.80;;;153.70;1740.80;;;;;;5036668;28;20025;-65
2021/01/28 11:08:39;;;;;;;84.22;40.10;;;153.80;1740.80;;;;;;5037241;28;20025;-64
2021/01/28 11:11:05;;;;;;;76.25;36.72;;;153.80;1740.80;;;;;;5037404;28;20423;-65
2021/01/28 11:13:30;;;;;;;72.70;37.08;;;153.80;1715.20;;;;;;5037111;28;20383;-64
2021/01/28 11:15:56;;;;;;;76.32;38.08;;;153.80;1740.80;;;;;;5037453;28;20025;-64
2021/01/28 11:18:22;;;;;;;71.32;39.33;;;153.90;1715.20;;;;;;5036828;28;20037;-65
2021/01/28 11:20:48;;;;;;;80.25;43.33;;;153.90;1715.20;;;;;;5037037;28;20041;-64
2021/01/28 11:23:14;;;;;;;66.93;40.83;;;153.90;1715.20;;;;;;5036842;28;20064;-64
2021/01/28 11:25:39;;;;;;;61.75;34.97;;;153.90;1715.20;;;;;;5036808;28;20052;-64
2021/01/28 11:28:06;;;;;;;62.10;36.28;;;153.90;1715.20;;;;;;5036690;28;20061;-64
2021/01/28 11:30:33;;;;;;;63.53;36.72;;;154.00;1715.20;;;;;;5036955;28;20418;-64
2021/01/28 11:33:01;;;;;;;64.28;37.17;;;154.00;1715.20;;;;;;5036787;28;20471;-65
2021/01/28 11:35:31;;;;;;;66.13;33.90;;;154.10;1715.20;;;;;;5036530;28;20032;-64
2021/01/28 11:38:00;;;;;;;55.95;31.73;;;154.20;1715.20;;;;;;5036667;28;20026;-65
2021/01/28 11:40:28;;;;;;;54.92;32.13;;;154.30;1715.20;;;;;;5036600;28;20033;-64
2021/01/28 11:42:54;;;;;;;50.80;29.85;;;154.30;1689.60;;;;;;5036441;28;20483;-64
2021/01/28 11:45:23;;;;;;;54.25;29.58;;;154.50;1689.60;;;;;;5036547;28;20049;-66
2021/01/28 11:47:49;;;;;;;52.40;28.33;;;154.50;1689.60;;;;;;5036309;28;20517;-64
2021/01/28 11:50:17;;;;;;;46.72;28.80;;;179.20;1689.60;;;;;;5036698;28;20022;-64
2021/01/28 11:52:43;;;;;;;58.88;31.13;;;179.20;1689.60;;;;;;5036552;28;20025;-64
2021/01/28 11:55:12;;;;;;;70.50;39.80;;;179.30;1664.00;;;;;;5036382;28;20395;-65
2021/01/28 11:57:37;;;;;;;83.28;43.08;;;179.30;1664.00;;;;;;5036043;28;20041;-64
2021/01/28 12:00:06;;;;;;;66.50;37.30;;;179.40;1664.00;;;;;;5035977;28;20025;-64
2021/01/28 12:02:31;;;;;;;80.82;38.08;;;179.40;1664.00;;;;;;5036212;28;20125;-65
2021/01/28 12:04:57;;;;;;;66.82;35.88;;;179.40;1664.00;;;;;;5035649;28;20049;-65
2021/01/28 12:07:23;;;;;;;71.93;37.10;;;179.50;1664.00;;;;;;5036054;28;20030;-64
2021/01/28 12:09:49;;;;;;;85.00;41.72;;;179.50;1638.40;;;;;;5036503;28;20017;-65
2021/01/28 12:12:15;;;;;;;75.32;39.53;;;179.50;1638.40;;;;;;5035995;28;20471;-65
2021/01/28 12:14:40;;;;;;;83.80;40.92;;;179.60;1638.40;;;;;;5036024;28;20095;-65
2021/01/28 12:17:07;;;;;;;69.82;37.20;;;179.60;1638.40;;;;;;5035835;28;20069;-65
2021/01/28 12:19:32;;;;;;;145.18;82.78;;;179.70;1638.40;;;;;;5035818;28;20021;-65
2021/01/28 12:21:58;;;;;;;74.78;44.70;;;179.70;1638.40;;;;;;5035755;28;20459;-65
2021/01/28 12:24:24;;;;;;;64.78;37.13;;;179.70;1612.80;;;;;;5035733;28;20079;-64
2021/01/28 12:26:50;;;;;;;55.42;30.48;;;179.70;1612.80;;;;;;5035627;28;20029;-65
2021/01/28 12:29:16;;;;;;;48.75;26.52;;;179.60;1612.80;;;;;;5035759;28;20035;-65